首页
METAR-TAF:

METAR-TAF

机场 :

底特律都会韦恩县机场

底特律, 密歇根州, 美国

纬度: 42-13-53N, 经度: 083-19-51W, 海拔: 194米

当前天气观测

该预报发布于13分钟前的20:53 UTC
风速7节,风向西转西北,有时为21节阵风
温度 27°C
湿度 42%
气压 1008 hPa
能見度: 16.1公里
少量云层高于4000英尺
少量云层高于13000英尺
多云层高于23000英尺

METAR: KDTW 032053Z 29007G21KT 10SM FEW040 FEW130 BKN230 27/13 A2976 RMK AO2 SLP072 T02720133 58001

时间: 17:06 (21:06 UTC)

预报

该预报发布于3小时和31分钟前的17:35 UTC
预报有效从03日的 18点(UTC)到 04日的 24点(UTC)
风速15节,风向西,有时为23节阵风
能見度: 10公里
少量云层高于4000英尺
多云层高于20000英尺
从 03日的 2300点(UTC)
风速7节,风向西北
能見度: 10公里
散云层高于4500英尺
从 04日的 0300点(UTC)
风速7节,风向东北
能見度: 10公里
天空无云
从 04日的 1000点(UTC)
风速3节,风向多变
能見度: 9.7公里
多云层高于25000英尺
轻雾
从 04日的 1800点(UTC)
风速5节,风向
能見度: 10公里
多云层高于25000英尺

TAF: KDTW 031735Z 0318/0424 28015G23KT P6SM FEW040 BKN200 FM032300 32007KT P6SM SCT045 FM040300 04007KT P6SM SKC FM041000 VRB03KT 6SM BR BKN250 FM041800 17005KT P6SM BKN250

超过4000个机场的气象观测和天气预报(METAR&TAF报告)。

可查询的气象台以黄色和红色小点在地图上表示。

将鼠标移到小点上方,可查看气象台名称。

然后点击查看天气观测和预报。

如需切换地图:点击带黑十字的绿色按钮放大地图;点击带横线的绿色按钮缩小地图;或者点击绿色箭头查看邻近地区的地图。


METAR-TAF: